createdAt,value
2023-05-18T00:00:04.208Z,97508.66
2023-05-18T00:03:08.322Z,97499.06
2023-05-18T00:06:11.968Z,97499.78
2023-05-18T00:09:19.091Z,97496.91
2023-05-18T00:12:23.260Z,97499.00
2023-05-18T00:15:27.478Z,97493.38
2023-05-18T00:24:43.766Z,97486.31
2023-05-18T00:27:51.606Z,97488.84
2023-05-18T00:30:57.695Z,97486.53
2023-05-18T00:34:01.540Z,97478.19
2023-05-18T00:37:05.959Z,97486.09
2023-05-18T00:40:10.237Z,97486.09
2023-05-18T00:43:19.546Z,97469.63
2023-05-18T00:46:27.558Z,97471.31
2023-05-18T00:49:32.155Z,97483.22
2023-05-18T00:56:03.646Z,97477.38
2023-05-18T01:02:29.855Z,97481.53
2023-05-18T01:05:34.166Z,97474.53
2023-05-18T01:08:38.002Z,97482.09
2023-05-18T01:11:42.331Z,97494.44
2023-05-18T01:14:46.697Z,97482.41
2023-05-18T01:17:50.968Z,97483.94
2023-05-18T01:20:55.160Z,97488.97
2023-05-18T01:23:59.053Z,97480.16
2023-05-18T01:27:03.107Z,97473.88
2023-05-18T01:30:07.090Z,97473.88
2023-05-18T01:33:14.627Z,97469.53
2023-05-18T01:36:18.753Z,97476.34
2023-05-18T01:39:26.373Z,97470.66
2023-05-18T01:42:30.506Z,97475.97
2023-05-18T01:45:34.346Z,97474.88
2023-05-18T01:48:38.626Z,97476.84
2023-05-18T01:51:43.110Z,97465.97
2023-05-18T01:54:49.486Z,97468.13
2023-05-18T01:57:53.617Z,97478.78
2023-05-18T02:00:57.601Z,97473.28
2023-05-18T02:04:18.596Z,97470.28
2023-05-18T02:07:22.626Z,97478.47
2023-05-18T02:10:26.872Z,97473.53
2023-05-18T02:13:30.837Z,97472.47
2023-05-18T02:16:35.003Z,97465.66
2023-05-18T02:23:07.447Z,97470.13
2023-05-18T02:26:13.193Z,97474.84
2023-05-18T02:29:17.156Z,97471.31
2023-05-18T02:32:21.102Z,97475.06
2023-05-18T02:35:25.378Z,97477.53
2023-05-18T02:38:29.520Z,97471.16
2023-05-18T02:41:33.547Z,97477.25
2023-05-18T02:44:37.497Z,97471.06
2023-05-18T02:47:41.584Z,97487.63
2023-05-18T02:50:46.124Z,97485.03
2023-05-18T02:53:50.577Z,97483.53
2023-05-18T02:56:54.656Z,97472.31
2023-05-18T03:03:26.595Z,97480.31
2023-05-18T03:06:32.209Z,97490.81
2023-05-18T03:09:36.566Z,97488.03
2023-05-18T03:12:40.135Z,97482.00
2023-05-18T03:15:44.311Z,97503.34
2023-05-18T03:18:48.489Z,97509.13
2023-05-18T03:21:52.800Z,97508.31
2023-05-18T03:24:56.568Z,97507.16
2023-05-18T03:28:00.459Z,97506.59
2023-05-18T03:31:04.411Z,97513.91
2023-05-18T03:34:08.463Z,97519.78
2023-05-18T03:37:12.719Z,97519.44
2023-05-18T03:40:16.592Z,97508.66
2023-05-18T03:43:20.559Z,97518.06
2023-05-18T03:46:24.573Z,97524.56
2023-05-18T03:49:29.887Z,97517.66
2023-05-18T03:52:33.858Z,97527.88
2023-05-18T03:55:37.729Z,97526.28
2023-05-18T03:58:41.543Z,97532.47
2023-05-18T04:01:45.662Z,97542.78
2023-05-18T04:04:49.501Z,97533.81
2023-05-18T04:07:53.274Z,97540.72
2023-05-18T04:10:57.159Z,97544.63
2023-05-18T04:14:01.187Z,97539.66
2023-05-18T04:17:05.051Z,97556.97
2023-05-18T04:20:09.058Z,97540.47
2023-05-18T04:23:14.397Z,97546.78
2023-05-18T04:26:18.346Z,97545.28
2023-05-18T04:29:22.038Z,97550.63
2023-05-18T04:32:26.101Z,97551.09
2023-05-18T04:35:30.275Z,97553.25
2023-05-18T04:38:34.373Z,97558.44
2023-05-18T04:41:38.309Z,97564.06
2023-05-18T04:44:42.463Z,97559.94
2023-05-18T04:47:46.616Z,97564.75
2023-05-18T04:50:50.769Z,97568.00
2023-05-18T04:53:54.911Z,97569.47
2023-05-18T04:56:58.923Z,97567.50
2023-05-18T05:00:02.782Z,97574.88
2023-05-18T05:03:06.664Z,97578.84
2023-05-18T05:06:10.832Z,97578.50
2023-05-18T05:09:14.433Z,97585.13
2023-05-18T05:12:18.819Z,97586.50
2023-05-18T05:15:22.980Z,97591.28
2023-05-18T05:18:26.862Z,97586.13
2023-05-18T05:21:30.584Z,97589.56
2023-05-18T05:24:34.474Z,97595.59
2023-05-18T05:27:38.746Z,97589.47
2023-05-18T05:30:42.650Z,97597.00
2023-05-18T05:33:46.599Z,97598.34
2023-05-18T05:36:51.765Z,97604.41
2023-05-18T05:39:55.925Z,97604.81
2023-05-18T05:42:59.868Z,97598.03
2023-05-18T05:46:03.689Z,97599.50
2023-05-18T05:49:07.544Z,97608.00
2023-05-18T05:52:11.505Z,97609.16
2023-05-18T05:55:15.556Z,97614.31
2023-05-18T05:58:19.393Z,97611.75
2023-05-18T06:01:23.090Z,97623.38
2023-05-18T06:04:27.322Z,97618.13
2023-05-18T06:07:31.743Z,97618.38
2023-05-18T06:10:35.808Z,97615.94
2023-05-18T06:13:39.759Z,97614.63
2023-05-18T06:16:43.826Z,97621.25
2023-05-18T06:19:48.201Z,97613.81
2023-05-18T06:22:52.169Z,97625.75
2023-05-18T06:25:56.134Z,97634.75
2023-05-18T06:29:00.174Z,97639.41
2023-05-18T06:32:04.109Z,97640.84
2023-05-18T06:35:08.309Z,97634.84
2023-05-18T06:38:16.115Z,97643.69
2023-05-18T06:41:21.668Z,97646.38
2023-05-18T06:44:25.963Z,97656.22
2023-05-18T06:47:29.833Z,97645.66
2023-05-18T06:50:33.441Z,97651.63
2023-05-18T06:53:37.757Z,97654.41
2023-05-18T06:56:41.774Z,97657.94
2023-05-18T06:59:45.589Z,97662.13
2023-05-18T07:02:49.482Z,97656.06
2023-05-18T07:05:53.615Z,97660.63
2023-05-18T07:08:57.955Z,97666.00
2023-05-18T07:12:02.833Z,97662.34
2023-05-18T07:18:29.827Z,97664.88
2023-05-18T07:21:34.005Z,97664.31
2023-05-18T07:24:38.352Z,97661.84
2023-05-18T07:27:42.819Z,97663.66
2023-05-18T07:30:46.918Z,97666.78
2023-05-18T07:33:50.615Z,97670.38
2023-05-18T07:43:37.267Z,97671.38
2023-05-18T07:46:42.752Z,97670.19
2023-05-18T07:49:47.132Z,97681.97
2023-05-18T07:52:50.886Z,97680.91
2023-05-18T07:55:54.752Z,97685.28
2023-05-18T07:58:58.823Z,97680.91
2023-05-18T08:02:02.994Z,97684.19
2023-05-18T08:05:07.312Z,97685.44
2023-05-18T08:08:11.475Z,97685.06
2023-05-18T08:11:15.309Z,97683.19
2023-05-18T08:17:47.796Z,97681.53
2023-05-18T08:20:51.761Z,97686.75
2023-05-18T08:23:55.711Z,97681.56
2023-05-18T08:26:59.535Z,97690.50
2023-05-18T08:30:03.593Z,97682.50
2023-05-18T08:33:07.993Z,97687.25
2023-05-18T08:36:12.543Z,97681.31
2023-05-18T08:39:16.820Z,97683.47
2023-05-18T08:42:22.489Z,97677.69
2023-05-18T08:45:28.743Z,97679.63
2023-05-18T08:48:33.100Z,97673.78
2023-05-18T08:51:37.110Z,97679.34
2023-05-18T08:54:43.213Z,97676.00
2023-05-18T08:57:47.498Z,97675.84
2023-05-18T09:00:51.526Z,97675.06
2023-05-18T09:03:55.421Z,97684.44
2023-05-18T09:06:59.275Z,97676.25
2023-05-18T09:10:03.424Z,97680.28
2023-05-18T09:13:07.612Z,97681.38
2023-05-18T09:16:11.659Z,97672.09
2023-05-18T09:19:15.578Z,97680.16
2023-05-18T09:22:19.440Z,97681.31
2023-05-18T09:25:23.445Z,97682.25
2023-05-18T09:28:27.431Z,97672.09
2023-05-18T09:31:31.237Z,97674.34
2023-05-18T09:34:35.177Z,97672.91
2023-05-18T09:37:39.243Z,97679.59
2023-05-18T09:40:43.207Z,97679.06
2023-05-18T09:43:47.222Z,97675.56
2023-05-18T09:46:51.084Z,97678.38
2023-05-18T09:49:54.969Z,97677.25
2023-05-18T09:52:58.984Z,97674.41
2023-05-18T09:56:02.984Z,97670.22
2023-05-18T09:59:07.076Z,97673.28
2023-05-18T10:02:10.883Z,97674.47
2023-05-18T10:05:18.084Z,97663.28
2023-05-18T10:08:22.309Z,97671.28
2023-05-18T10:11:26.505Z,97672.28
2023-05-18T10:14:31.427Z,97665.97
2023-05-18T10:17:35.461Z,97664.41
2023-05-18T10:20:39.227Z,97669.69
2023-05-18T10:23:43.426Z,97670.78
2023-05-18T10:26:47.301Z,97661.50
2023-05-18T10:29:51.154Z,97659.59
2023-05-18T10:32:55.115Z,97658.81
2023-05-18T10:35:59.156Z,97657.13
2023-05-18T10:39:03.160Z,97650.75
2023-05-18T10:42:06.943Z,97652.97
2023-05-18T10:45:10.875Z,97643.34
2023-05-18T10:48:15.127Z,97652.34
2023-05-18T10:51:19.315Z,97652.69
2023-05-18T10:54:23.525Z,97647.91
2023-05-18T10:57:27.614Z,97642.84
2023-05-18T11:00:31.992Z,97635.63
2023-05-18T11:03:36.480Z,97640.13
2023-05-18T11:06:40.551Z,97642.25
2023-05-18T11:09:44.491Z,97640.41
2023-05-18T11:12:48.131Z,97645.75
2023-05-18T11:15:52.183Z,97644.13
2023-05-18T11:18:56.110Z,97641.25
2023-05-18T11:22:00.199Z,97632.97
2023-05-18T11:25:04.172Z,97637.25
2023-05-18T11:28:08.243Z,97634.63
2023-05-18T11:31:12.054Z,97632.69
2023-05-18T11:34:15.987Z,97643.56
2023-05-18T11:37:20.146Z,97641.88
2023-05-18T11:40:24.009Z,97649.50
2023-05-18T11:43:27.947Z,97641.19
2023-05-18T11:46:31.979Z,97637.59
2023-05-18T11:49:36.042Z,97640.59
2023-05-18T11:52:39.786Z,97636.56
2023-05-18T11:55:43.733Z,97633.94
2023-05-18T11:58:47.666Z,97641.22
2023-05-18T12:01:51.955Z,97636.72
2023-05-18T12:04:56.203Z,97637.78
2023-05-18T12:07:59.875Z,97642.56
2023-05-18T12:11:05.708Z,97636.72
2023-05-18T12:14:09.837Z,97646.03
2023-05-18T12:17:13.961Z,97642.59
2023-05-18T12:20:17.833Z,97637.34
2023-05-18T12:23:21.833Z,97637.53
2023-05-18T12:26:25.956Z,97636.69
2023-05-18T12:29:30.115Z,97634.84
2023-05-18T12:32:34.450Z,97639.06
2023-05-18T12:35:38.254Z,97634.06
2023-05-18T12:38:42.503Z,97632.16
2023-05-18T12:41:46.491Z,97642.84
2023-05-18T12:44:50.598Z,97635.13
2023-05-18T12:47:54.801Z,97631.00
2023-05-18T12:50:58.758Z,97621.69
2023-05-18T12:54:02.770Z,97630.81
2023-05-18T12:57:07.065Z,97630.38
2023-05-18T13:00:11.073Z,97632.41
2023-05-18T13:03:16.332Z,97634.81
2023-05-18T13:06:20.560Z,97639.88
2023-05-18T13:09:27.760Z,97641.56
2023-05-18T13:12:31.902Z,97634.19
2023-05-18T13:15:35.955Z,97632.16
2023-05-18T13:18:40.042Z,97638.88
2023-05-18T13:21:47.353Z,97637.53
2023-05-18T13:24:51.639Z,97629.50
2023-05-18T13:27:55.552Z,97624.84
2023-05-18T13:30:59.654Z,97622.66
2023-05-18T13:34:03.908Z,97613.25
2023-05-18T13:37:07.903Z,97619.63
2023-05-18T13:40:12.024Z,97618.88
2023-05-18T13:43:16.148Z,97617.03
2023-05-18T13:46:20.167Z,97620.91
2023-05-18T13:49:24.136Z,97616.28
2023-05-18T13:52:28.187Z,97612.38
2023-05-18T13:55:32.359Z,97609.66
2023-05-18T13:58:36.418Z,97605.50
2023-05-18T14:01:40.509Z,97604.00
2023-05-18T14:04:44.329Z,97600.53
2023-05-18T14:07:49.852Z,97601.00
2023-05-18T14:10:53.822Z,97602.25
2023-05-18T14:13:57.993Z,97602.63
2023-05-18T14:17:02.167Z,97600.22
2023-05-18T14:20:06.113Z,97606.09
2023-05-18T14:23:09.965Z,97583.75
2023-05-18T14:26:14.102Z,97583.94
2023-05-18T14:29:18.123Z,97581.47
2023-05-18T14:32:22.283Z,97584.47
2023-05-18T14:35:33.947Z,97587.19
2023-05-18T14:38:38.198Z,97587.47
2023-05-18T14:41:42.343Z,97583.00
2023-05-18T14:44:46.301Z,97589.03
2023-05-18T14:47:50.387Z,97586.94
2023-05-18T14:50:54.647Z,97586.94
2023-05-18T14:53:58.501Z,97572.88
2023-05-18T14:57:02.455Z,97580.34
2023-05-18T15:00:09.346Z,97575.81
2023-05-18T15:03:13.145Z,97569.63
2023-05-18T15:06:17.205Z,97569.09
2023-05-18T15:09:21.332Z,97574.19
2023-05-18T15:12:25.331Z,97572.88
2023-05-18T15:15:29.353Z,97567.50
2023-05-18T15:18:33.241Z,97568.63
2023-05-18T15:21:37.201Z,97565.44
2023-05-18T15:24:41.380Z,97563.03
2023-05-18T15:27:45.448Z,97559.53
2023-05-18T15:30:49.721Z,97551.59
2023-05-18T15:33:53.547Z,97561.72
2023-05-18T15:36:57.745Z,97557.66
2023-05-18T15:40:01.811Z,97548.91
2023-05-18T15:43:05.799Z,97542.28
2023-05-18T15:46:09.549Z,97544.09
2023-05-18T15:49:13.770Z,97536.78
2023-05-18T15:52:18.098Z,97545.19
2023-05-18T15:55:21.958Z,97553.63
2023-05-18T15:58:25.841Z,97554.34
2023-05-18T16:01:29.406Z,97550.81
2023-05-18T16:04:33.531Z,97551.06
2023-05-18T16:07:38.290Z,97544.16
2023-05-18T16:10:41.840Z,97546.31
2023-05-18T16:13:45.862Z,97538.31
2023-05-18T16:16:50.022Z,97541.78
2023-05-18T16:19:53.758Z,97537.22
2023-05-18T16:22:57.810Z,97546.56
2023-05-18T16:26:01.728Z,97536.19
2023-05-18T16:29:05.607Z,97543.63
2023-05-18T16:32:09.663Z,97554.50
2023-05-18T16:35:13.760Z,97548.38
2023-05-18T16:38:17.777Z,97547.34
2023-05-18T16:41:21.568Z,97549.75
2023-05-18T16:44:25.727Z,97551.63
2023-05-18T16:47:29.810Z,97545.50
2023-05-18T16:50:33.810Z,97548.41
2023-05-18T16:53:38.172Z,97551.34
2023-05-18T16:56:42.084Z,97544.69
2023-05-18T16:59:46.324Z,97563.03
2023-05-18T17:02:50.437Z,97558.25
2023-05-18T17:05:54.078Z,97553.97
2023-05-18T17:08:58.669Z,97557.38
2023-05-18T17:12:02.902Z,97559.53
2023-05-18T17:15:06.899Z,97560.13
2023-05-18T17:18:10.990Z,97564.13
2023-05-18T17:21:14.785Z,97558.53
2023-05-18T17:24:18.942Z,97560.91
2023-05-18T17:27:22.834Z,97568.31
2023-05-18T17:30:26.925Z,97566.97
2023-05-18T17:33:30.898Z,97560.38
2023-05-18T17:36:34.848Z,97563.69
2023-05-18T17:39:39.187Z,97559.03
2023-05-18T17:42:43.553Z,97565.16
2023-05-18T17:45:47.363Z,97565.63
2023-05-18T17:48:51.100Z,97560.38
2023-05-18T17:51:55.052Z,97557.47
2023-05-18T17:55:01.828Z,97558.25
2023-05-18T17:58:06.027Z,97556.94
2023-05-18T18:01:09.952Z,97561.69
2023-05-18T18:04:13.953Z,97564.59
2023-05-18T18:07:17.810Z,97563.81
2023-05-18T18:10:22.079Z,97566.09
2023-05-18T18:13:26.199Z,97569.56
2023-05-18T18:16:30.161Z,97561.38
2023-05-18T18:19:34.048Z,97557.78
2023-05-18T18:22:38.367Z,97558.59
2023-05-18T18:25:42.728Z,97564.59
2023-05-18T18:28:47.064Z,97561.66
2023-05-18T18:31:50.904Z,97570.94
2023-05-18T18:34:54.712Z,97576.72
2023-05-18T18:37:59.018Z,97576.69
2023-05-18T18:41:03.037Z,97579.25
2023-05-18T18:44:09.129Z,97581.06
2023-05-18T18:47:13.267Z,97581.25
2023-05-18T18:50:17.280Z,97595.72
2023-05-18T18:53:21.420Z,97589.16
2023-05-18T18:56:25.545Z,97592.88
2023-05-18T18:59:29.568Z,97589.84
2023-05-18T19:02:33.520Z,97589.75
2023-05-18T19:05:37.478Z,97609.81
2023-05-18T19:08:41.694Z,97604.47
2023-05-18T19:11:47.123Z,97607.09
2023-05-18T19:14:51.288Z,97606.84
2023-05-18T19:17:55.332Z,97611.53
2023-05-18T19:20:59.185Z,97611.38
2023-05-18T19:24:03.357Z,97616.06
2023-05-18T19:27:07.413Z,97622.69
2023-05-18T19:30:13.072Z,97630.25
2023-05-18T19:33:16.963Z,97621.31
2023-05-18T19:36:20.953Z,97633.50
2023-05-18T19:39:25.140Z,97632.06
2023-05-18T19:42:29.255Z,97640.13
2023-05-18T19:45:33.369Z,97645.88
2023-05-18T19:48:37.524Z,97636.22
2023-05-18T19:51:41.336Z,97643.16
2023-05-18T19:54:45.265Z,97649.59
2023-05-18T19:57:49.227Z,97649.06
2023-05-18T20:00:53.135Z,97656.47
2023-05-18T20:03:57.451Z,97661.31
2023-05-18T20:07:01.574Z,97654.53
2023-05-18T20:10:05.555Z,97659.63
2023-05-18T20:13:09.312Z,97660.34
2023-05-18T20:16:13.154Z,97664.84
2023-05-18T20:19:17.450Z,97659.66
2023-05-18T20:22:21.437Z,97663.44
2023-05-18T20:25:25.404Z,97662.34
2023-05-18T20:28:29.266Z,97660.59
2023-05-18T20:31:33.342Z,97662.97
2023-05-18T20:34:37.333Z,97650.91
2023-05-18T20:37:41.387Z,97643.75
2023-05-18T20:40:45.167Z,97658.75
2023-05-18T20:43:49.091Z,97652.56
2023-05-18T20:46:53.070Z,97653.84
2023-05-18T20:49:57.238Z,97656.13
2023-05-18T20:53:01.165Z,97646.66
2023-05-18T20:56:05.046Z,97642.34
2023-05-18T20:59:08.909Z,97652.72
2023-05-18T21:02:12.981Z,97653.84
2023-05-18T21:05:16.983Z,97649.25
2023-05-18T21:08:20.838Z,97649.44
2023-05-18T21:11:24.686Z,97649.50
2023-05-18T21:14:28.777Z,97654.75
2023-05-18T21:17:32.916Z,97645.34
2023-05-18T21:20:36.884Z,97651.84
2023-05-18T21:23:40.681Z,97644.78
2023-05-18T21:26:44.572Z,97648.59
2023-05-18T21:29:48.773Z,97639.00
2023-05-18T21:32:52.809Z,97649.63
2023-05-18T21:35:56.844Z,97640.16
2023-05-18T21:39:00.791Z,97642.94
2023-05-18T21:42:06.871Z,97642.78
2023-05-18T21:45:17.429Z,97650.13
2023-05-18T21:48:21.938Z,97652.84
2023-05-18T21:51:25.838Z,97651.25
2023-05-18T21:54:32.727Z,97643.28
2023-05-18T21:57:36.943Z,97633.31
2023-05-18T22:00:43.862Z,97632.38
2023-05-18T22:03:54.370Z,97630.91
2023-05-18T22:07:02.848Z,97625.59
2023-05-18T22:10:07.217Z,97625.97
2023-05-18T22:13:11.152Z,97633.22
2023-05-18T22:16:15.234Z,97625.91
2023-05-18T22:19:28.025Z,97625.56
2023-05-18T22:22:32.144Z,97635.84
2023-05-18T22:25:36.271Z,97629.03
2023-05-18T22:28:40.826Z,97638.25
2023-05-18T22:31:45.097Z,97632.41
2023-05-18T22:34:49.199Z,97628.84
2023-05-18T22:37:53.039Z,97629.38
2023-05-18T22:40:57.024Z,97630.97
2023-05-18T22:44:01.154Z,97626.66
2023-05-18T22:47:05.907Z,97624.44
2023-05-18T22:50:17.576Z,97619.47
2023-05-18T22:53:24.325Z,97627.22
2023-05-18T22:56:28.561Z,97631.78
2023-05-18T22:59:32.569Z,97620.75
2023-05-18T23:02:36.759Z,97618.53
2023-05-18T23:05:40.930Z,97623.47
2023-05-18T23:08:45.167Z,97619.78
2023-05-18T23:11:49.668Z,97617.47
2023-05-18T23:14:56.842Z,97616.19
2023-05-18T23:18:08.238Z,97618.91
2023-05-18T23:21:13.312Z,97617.63
2023-05-18T23:24:17.386Z,97615.66
2023-05-18T23:27:21.612Z,97606.59
2023-05-18T23:30:27.039Z,97604.41
2023-05-18T23:33:32.560Z,97609.97
2023-05-18T23:36:36.948Z,97615.09
2023-05-18T23:39:40.795Z,97609.22
2023-05-18T23:42:44.716Z,97602.25
2023-05-18T23:45:48.769Z,97610.78
2023-05-18T23:48:53.862Z,97606.53
2023-05-18T23:51:58.223Z,97605.59
2023-05-18T23:55:02.130Z,97606.03
2023-05-18T23:58:06.087Z,97604.97
